Time;durP1;ratioP1;P1;durP2;ratioP2;P2;SDS_P1;SDS_P2;PMS_P1;PMS_P2;Temp;Humidity;BMP_temperature;BMP_pressure;BME280_temperature;BME280_humidity;BME280_pressure;Samples;Min_cycle;Max_cycle;Signal;HPM_P1;HPM_P2
2023/04/19 06:59:32;;;;;;;;;;;;;;;10.06;100.00;98400.09;5051285;28;20297;-59
2023/04/19 07:01:57;;;;;;;;;;;;;;;10.03;100.00;98399.56;5027307;28;19932;-60
2023/04/19 07:04:24;;;;;;;;;;;;;;;10.08;100.00;98397.38;5008160;28;19941;-60
2023/04/19 07:06:49;;;;;;;;;;;;;;;10.13;100.00;98393.34;5029291;28;19924;-59
2023/04/19 07:09:17;;;;;;;;;;;;;;;10.19;100.00;98392.75;5044061;28;19928;-59
2023/04/19 07:11:46;;;;;;;;;;;;;;;10.25;100.00;98390.53;5012393;28;19920;-59
2023/04/19 07:14:11;;;;;;;;;;;;;;;10.23;100.00;98385.47;5021186;28;19932;-59
2023/04/19 07:16:39;;;;;;;;;;;;;;;10.24;100.00;98381.09;5044480;28;19925;-59
2023/04/19 07:19:05;;;;;;;;;;;;;;;10.21;100.00;98377.03;5025112;28;19925;-60
2023/04/19 07:21:33;;;;;;;;;;;;;;;10.18;100.00;98377.31;5026900;28;20467;-59
2023/04/19 07:24:01;;;;;;;;;;;;;;;10.09;100.00;98378.19;5011710;28;19921;-60
2023/04/19 07:26:26;;;;;;;;;;;;;;;10.22;100.00;98373.44;5044480;28;19931;-59
2023/04/19 07:28:52;;;;;;;;;;;;;;;10.30;100.00;98372.72;5008146;28;19920;-59
2023/04/19 07:31:20;;;;;;;;;;;;;;;10.33;100.00;98377.63;5047264;28;20421;-60
2023/04/19 07:33:45;;;;;;;;;;;;;;;10.31;100.00;98372.63;5026037;28;19974;-59
2023/04/19 07:36:13;;;;;;;;;;;;;;;10.23;100.00;98364.69;5029838;28;20939;-60
2023/04/19 07:38:38;;;;;;;;;;;;;;;10.28;100.00;98369.47;5028570;28;19920;-59
2023/04/19 07:41:07;;;;;;;;;;;;;;;10.09;100.00;98331.44;5020961;28;19925;-59
2023/04/19 07:43:33;;;;;;;;;;;;;;;10.33;100.00;98359.44;5027159;28;20240;-58
2023/04/19 07:45:58;;;;;;;;;;;;;;;10.34;100.00;98353.28;5028529;28;20390;-58
2023/04/19 07:48:26;;;;;;;;;;;;;;;10.34;100.00;98361.09;5010239;28;19931;-59
2023/04/19 07:50:51;;;;;;;;;;;;;;;10.35;100.00;98355.75;5029284;28;20426;-58
2023/04/19 07:53:17;;;;;;;;;;;;;;;10.35;100.00;98360.13;5047657;28;19940;-59
2023/04/19 07:55:42;;;;;;;;;;;;;;;10.33;100.00;98355.09;5013328;28;20364;-59
2023/04/19 07:58:09;;;;;;;;;;;;;;;10.28;100.00;98354.69;5045678;28;19925;-59
2023/04/19 08:00:36;;;;;;;;;;;;;;;10.30;100.00;98354.53;5044849;28;19920;-59
2023/04/19 08:03:04;;;;;;;;;;;;;;;10.33;100.00;98346.44;5024324;28;19976;-59
2023/04/19 08:05:30;;;;;;;;;;;;;;;10.35;100.00;98347.16;5024846;28;19920;-59
2023/04/19 08:07:58;;;;;;;;;;;;;;;10.36;100.00;98341.78;5047052;28;19927;-58
2023/04/19 08:10:27;;;;;;;;;;;;;;;10.39;100.00;98345.88;5026836;28;20291;-58
2023/04/19 08:12:55;;;;;;;;;;;;;;;10.43;100.00;98344.59;5043551;28;20034;-58
2023/04/19 08:15:21;;;;;;;;;;;;;;;10.46;100.00;98338.28;5027548;28;19961;-58
2023/04/19 08:17:46;;;;;;;;;;;;;;;10.53;100.00;98344.50;5046442;28;20015;-59
2023/04/19 08:20:12;;;;;;;;;;;;;;;10.59;100.00;98330.91;5027099;28;21282;-58
2023/04/19 08:22:39;;;;;;;;;;;;;;;10.63;100.00;98334.03;5029525;28;19921;-59
2023/04/19 08:25:05;;;;;;;;;;;;;;;11.11;100.00;98333.50;5023559;28;19932;-58
2023/04/19 08:27:30;;;;;;;;;;;;;;;12.64;90.67;98333.38;5025794;28;20340;-58
2023/04/19 08:29:56;;;;;;;;;;;;;;;14.30;75.46;98322.88;5024264;28;20038;-58
2023/04/19 08:32:21;;;;;;;;;;;;;;;15.68;68.82;98318.19;5026407;28;19928;-58
2023/04/19 08:34:49;;;;;;;;;;;;;;;16.49;63.58;98289.94;5023879;28;19928;-59
2023/04/19 08:37:14;;;;;;;;;;;;;;;17.46;57.09;98317.19;5035116;28;19920;-59
2023/04/19 08:39:42;;;;;;;;;;;;;;;18.06;57.02;98304.25;5029540;28;20366;-59
2023/04/19 08:42:08;;;;;;;;;;;;;;;18.51;53.37;98311.56;5038767;28;19921;-59
2023/04/19 08:44:33;;;;;;;;;;;;;;;18.35;51.66;98299.63;5011182;28;19976;-59
2023/04/19 08:47:00;;;;;;;;;;;;;;;18.42;51.18;98294.38;5044541;28;19916;-59
2023/04/19 08:49:28;;;;;;;;;;;;;;;18.54;50.65;98295.34;5017748;28;19972;-59
2023/04/19 08:51:54;;;;;;;;;;;;;;;18.72;50.67;98299.19;5024666;28;19924;-59
2023/04/19 08:54:19;;;;;;;;;;;;;;;18.71;50.25;98289.66;5028202;28;19943;-59
2023/04/19 08:56:47;;;;;;;;;;;;;;;18.37;52.28;98288.88;5024002;28;19925;-59
2023/04/19 08:59:13;;;;;;;;;;;;;;;17.74;52.16;98279.50;5035681;28;19925;-59
2023/04/19 09:01:38;;;;;;;;;;;;;;;16.67;54.05;98281.59;5036381;28;19998;-59
2023/04/19 09:04:06;;;;;;;;;;;;;;;15.78;58.45;98276.81;5007111;28;20046;-60
2023/04/19 09:06:38;;;;;;;;;;;;;;;14.92;59.41;98279.97;5008128;28;20375;-59
2023/04/19 09:09:24;;;;;;;;;;;;;;;14.68;62.66;98275.03;4992510;28;20016;-59
2023/04/19 09:11:49;;;;;;;;;;;;;;;14.71;63.20;98265.00;5026043;28;19921;-58
2023/04/19 09:14:17;;;;;;;;;;;;;;;14.75;65.80;98262.84;5006973;28;19928;-59
2023/04/19 09:16:45;;;;;;;;;;;;;;;14.87;65.75;98256.16;5024772;28;20398;-59
2023/04/19 09:19:11;;;;;;;;;;;;;;;14.87;68.88;98253.53;5006042;28;19925;-58
2023/04/19 09:21:37;;;;;;;;;;;;;;;15.01;66.82;98248.50;5015050;28;20698;-59
2023/04/19 09:24:02;;;;;;;;;;;;;;;15.18;61.54;98244.66;5023062;28;19931;-58
2023/04/19 09:26:30;;;;;;;;;;;;;;;15.22;59.28;98240.69;5006093;28;19933;-58
2023/04/19 09:28:56;;;;;;;;;;;;;;;15.28;59.48;98237.34;5005111;28;20252;-58
2023/04/19 09:31:24;;;;;;;;;;;;;;;15.35;59.42;98233.00;4990097;28;19925;-59
2023/04/19 09:33:50;;;;;;;;;;;;;;;15.42;57.80;98230.44;4988675;28;20315;-58
2023/04/19 09:36:31;;;;;;;;;;;;;;;15.55;58.93;98230.59;4983607;28;19932;-58
2023/04/19 09:38:56;;;;;;;;;;;;;;;15.53;57.81;98223.91;5006565;28;20360;-58
2023/04/19 09:41:21;;;;;;;;;;;;;;;15.50;57.89;98217.22;5003721;28;19971;-59
2023/04/19 09:43:51;;;;;;;;;;;;;;;15.74;56.04;98215.28;5024152;28;20027;-59
2023/04/19 09:46:28;;;;;;;;;;;;;;;16.09;53.48;98223.25;4987250;28;20382;-58
2023/04/19 09:48:54;;;;;;;;;;;;;;;15.95;54.43;98212.66;5021291;28;20360;-58
2023/04/19 09:51:21;;;;;;;;;;;;;;;15.90;55.45;98207.16;5023952;28;19921;-59
2023/04/19 09:53:46;;;;;;;;;;;;;;;16.01;56.98;98197.97;4990041;28;20017;-58
2023/04/19 09:56:12;;;;;;;;;;;;;;;15.97;56.39;98201.16;5023380;28;19921;-59
2023/04/19 09:58:37;;;;;;;;;;;;;;;16.17;54.79;98196.84;5010919;28;19936;-59
2023/04/19 10:01:02;;;;;;;;;;;;;;;16.27;54.41;98189.47;5010572;28;19948;-58
2023/04/19 10:03:28;;;;;;;;;;;;;;;16.21;54.82;98185.00;5026207;28;19927;-59
2023/04/19 10:05:56;;;;;;;;;;;;;;;16.29;55.58;98176.97;5034901;28;19921;-60
2023/04/19 10:08:21;;;;;;;;;;;;;;;16.27;54.94;98176.38;5032033;28;19971;-59
2023/04/19 10:10:51;;;;;;;;;;;;;;;16.33;53.63;98177.41;5027213;28;20346;-60
2023/04/19 10:13:19;;;;;;;;;;;;;;;16.27;54.61;98175.56;5044995;28;20368;-60
2023/04/19 10:15:47;;;;;;;;;;;;;;;16.40;53.97;98166.97;5012779;28;20011;-59
2023/04/19 10:18:13;;;;;;;;;;;;;;;16.78;52.19;98169.19;5026947;28;20363;-59
2023/04/19 10:20:41;;;;;;;;;;;;;;;16.58;52.70;98174.34;5015075;28;19921;-59
2023/04/19 10:23:09;;;;;;;;;;;;;;;16.55;54.05;98167.63;5028143;28;19925;-59
2023/04/19 10:25:36;;;;;;;;;;;;;;;17.07;50.75;98154.97;5029409;28;19917;-59
2023/04/19 10:28:04;;;;;;;;;;;;;;;16.96;52.06;98155.53;5029289;28;19952;-59
2023/04/19 10:30:29;;;;;;;;;;;;;;;16.76;53.45;98147.56;5008713;28;19925;-59
2023/04/19 10:32:55;;;;;;;;;;;;;;;16.69;53.66;98147.53;5012386;28;19921;-59
2023/04/19 10:35:22;;;;;;;;;;;;;;;16.67;52.89;98141.66;5033159;28;19925;-60
2023/04/19 10:38:09;;;;;;;;;;;;;;;16.93;52.98;98148.06;5044986;28;19917;-59
2023/04/19 10:40:53;;;;;;;;;;;;;;;17.21;51.50;98142.66;5045887;28;19931;-60
2023/04/19 10:43:19;;;;;;;;;;;;;;;17.35;53.04;98136.44;5045144;28;19975;-59
2023/04/19 10:45:48;;;;;;;;;;;;;;;17.30;52.86;98128.34;5009801;28;20434;-60
2023/04/19 10:48:36;;;;;;;;;;;;;;;17.04;53.25;98101.00;5009513;28;19924;-59
2023/04/19 10:54:25;;;;;;;;;;;;;;;17.48;52.45;98112.00;5020635;28;19932;-59
2023/04/19 10:57:04;;;;;;;;;;;;;;;17.44;52.01;98103.69;5035901;28;19921;-59
2023/04/19 10:59:32;;;;;;;;;;;;;;;17.42;53.15;98104.94;5040965;28;19928;-59
2023/04/19 11:02:04;;;;;;;;;;;;;;;17.58;51.30;98096.66;5041812;28;19925;-59
2023/04/19 11:04:32;;;;;;;;;;;;;;;17.56;52.03;98088.16;5025091;28;20480;-58
2023/04/19 11:07:00;;;;;;;;;;;;;;;17.64;51.69;98082.69;5030892;28;19951;-60
2023/04/19 11:09:40;;;;;;;;;;;;;;;17.67;51.80;98084.91;5041371;28;19925;-58
2023/04/19 11:12:10;;;;;;;;;;;;;;;17.59;51.51;98079.84;5041061;28;19925;-58
2023/04/19 11:14:45;;;;;;;;;;;;;;;17.93;50.97;98071.97;5023554;28;20647;-58
2023/04/19 11:17:15;;;;;;;;;;;;;;;17.72;50.69;98072.97;5023591;28;20031;-58
2023/04/19 11:19:41;;;;;;;;;;;;;;;17.65;50.20;98065.91;5046248;28;19991;-58
2023/04/19 11:22:09;;;;;;;;;;;;;;;17.74;50.09;98055.16;5041506;28;19925;-58
2023/04/19 11:24:38;;;;;;;;;;;;;;;17.67;49.65;98053.38;5047155;28;19966;-58
2023/04/19 11:27:08;;;;;;;;;;;;;;;17.66;49.82;98043.03;5025120;28;19959;-59
2023/04/19 11:29:37;;;;;;;;;;;;;;;17.84;52.39;98043.22;5042909;28;19925;-58
2023/04/19 11:32:03;;;;;;;;;;;;;;;17.92;50.10;98050.09;5031814;28;19921;-59
2023/04/19 11:34:28;;;;;;;;;;;;;;;17.98;48.53;98035.31;5044852;28;19987;-59
2023/04/19 11:36:53;;;;;;;;;;;;;;;17.93;49.87;98030.69;5048243;28;19923;-58
2023/04/19 11:39:20;;;;;;;;;;;;;;;18.05;50.24;98028.22;5042800;28;20441;-58
2023/04/19 11:41:46;;;;;;;;;;;;;;;18.04;50.55;98026.63;4996053;28;19928;-58
2023/04/19 11:44:15;;;;;;;;;;;;;;;17.97;49.60;98012.69;5013091;28;19925;-59
2023/04/19 11:46:40;;;;;;;;;;;;;;;18.14;48.58;98011.19;5017703;28;19932;-61
2023/04/19 11:49:06;;;;;;;;;;;;;;;18.13;49.60;98009.59;5026586;28;19974;-58
2023/04/19 11:51:31;;;;;;;;;;;;;;;18.17;49.46;98005.53;5026488;28;19925;-59
2023/04/19 11:53:59;;;;;;;;;;;;;;;18.26;48.97;97992.94;5038669;28;19927;-58
2023/04/19 11:56:26;;;;;;;;;;;;;;;18.36;47.44;97989.84;5042138;28;19956;-58
2023/04/19 11:58:55;;;;;;;;;;;;;;;18.27;47.49;97989.28;5041247;28;19924;-58
2023/04/19 12:01:21;;;;;;;;;;;;;;;18.33;49.39;97988.47;5038205;28;19956;-59
2023/04/19 12:03:49;;;;;;;;;;;;;;;18.55;46.48;97990.78;5045133;28;19925;-58
2023/04/19 12:06:20;;;;;;;;;;;;;;;18.39;47.18;97966.56;5045880;28;19921;-58
2023/04/19 12:08:46;;;;;;;;;;;;;;;18.58;48.16;97971.91;5029020;28;19955;-58
2023/04/19 12:11:11;;;;;;;;;;;;;;;18.73;46.96;97972.44;5042414;28;20903;-58
2023/04/19 12:13:43;;;;;;;;;;;;;;;18.66;46.49;97965.63;5044982;28;19938;-58
2023/04/19 12:16:08;;;;;;;;;;;;;;;18.67;46.87;97960.13;5027829;28;20264;-58
2023/04/19 12:18:49;;;;;;;;;;;;;;;18.72;47.14;97962.13;5009647;28;19925;-58
2023/04/19 12:21:26;;;;;;;;;;;;;;;18.96;44.29;97947.38;5027677;28;19921;-58
2023/04/19 12:23:54;;;;;;;;;;;;;;;18.87;46.28;97949.47;5015285;28;20120;-58
2023/04/19 12:26:20;;;;;;;;;;;;;;;18.93;46.91;97942.53;5048238;28;19920;-58
2023/04/19 12:28:48;;;;;;;;;;;;;;;18.98;47.90;97934.81;5013073;28;19983;-57
2023/04/19 12:31:13;;;;;;;;;;;;;;;19.12;46.42;97936.31;5026871;28;19925;-58
2023/04/19 12:33:39;;;;;;;;;;;;;;;19.21;44.53;97932.38;5016026;28;19917;-58
2023/04/19 12:36:07;;;;;;;;;;;;;;;19.27;45.56;97930.69;5026083;28;19925;-58
2023/04/19 12:38:34;;;;;;;;;;;;;;;19.14;45.03;97922.94;5046934;28;19917;-58
2023/04/19 12:41:02;;;;;;;;;;;;;;;19.15;45.62;97924.56;5028190;28;20471;-58
2023/04/19 12:43:30;;;;;;;;;;;;;;;19.07;46.17;97920.34;5027712;28;19916;-59
2023/04/19 12:45:57;;;;;;;;;;;;;;;19.00;45.43;97923.06;5045192;28;19998;-59
2023/04/19 12:48:24;;;;;;;;;;;;;;;19.07;45.87;97911.63;5025680;28;19924;-59
2023/04/19 12:50:50;;;;;;;;;;;;;;;19.17;45.50;97898.78;5028232;28;19921;-59
2023/04/19 12:53:15;;;;;;;;;;;;;;;19.46;45.52;97907.81;5010228;28;20036;-59
2023/04/19 12:55:40;;;;;;;;;;;;;;;19.54;45.88;97896.19;5043060;28;19925;-59
2023/04/19 12:58:06;;;;;;;;;;;;;;;19.59;45.07;97902.41;5021558;28;19956;-59
2023/04/19 13:00:34;;;;;;;;;;;;;;;19.70;44.32;97892.94;5032781;28;20372;-60
2023/04/19 13:02:59;;;;;;;;;;;;;;;19.78;45.25;97886.59;5026809;28;20059;-59
2023/04/19 13:05:24;;;;;;;;;;;;;;;19.85;44.36;97889.97;5040433;28;20015;-59
2023/04/19 13:07:52;;;;;;;;;;;;;;;19.88;45.13;97878.97;5025370;28;20265;-59
2023/04/19 13:10:17;;;;;;;;;;;;;;;19.90;44.23;97879.53;5041594;28;19932;-59
2023/04/19 13:12:45;;;;;;;;;;;;;;;19.93;42.76;97879.13;5026897;28;19924;-58
2023/04/19 13:15:11;;;;;;;;;;;;;;;19.87;43.51;97871.28;5021894;28;19925;-58
2023/04/19 13:17:36;;;;;;;;;;;;;;;20.05;43.83;97868.59;5042484;28;20865;-59
2023/04/19 13:20:05;;;;;;;;;;;;;;;20.18;42.74;97870.25;5025342;28;20662;-62
2023/04/19 13:22:30;;;;;;;;;;;;;;;20.18;42.16;97867.59;5000233;28;19925;-61
2023/04/19 13:24:58;;;;;;;;;;;;;;;20.17;42.70;97856.25;5002541;28;19932;-61
2023/04/19 13:27:23;;;;;;;;;;;;;;;20.31;42.24;97848.13;5015322;28;20528;-61
2023/04/19 13:29:48;;;;;;;;;;;;;;;20.33;41.84;97841.63;5001608;28;19916;-61
2023/04/19 13:32:16;;;;;;;;;;;;;;;20.52;43.05;97844.16;5014601;28;20024;-61
2023/04/19 13:34:44;;;;;;;;;;;;;;;20.45;41.99;97838.19;5019182;28;19929;-61
2023/04/19 13:37:10;;;;;;;;;;;;;;;20.55;43.08;97835.78;5001178;28;19920;-61
2023/04/19 13:39:35;;;;;;;;;;;;;;;20.60;40.63;97829.81;5000766;28;19982;-62
2023/04/19 13:42:00;;;;;;;;;;;;;;;20.55;42.46;97826.03;5018304;28;20360;-61
2023/04/19 13:44:30;;;;;;;;;;;;;;;20.60;42.02;97820.06;5016516;28;20027;-62
2023/04/19 13:46:56;;;;;;;;;;;;;;;20.69;41.91;97821.34;4999956;28;19969;-62
2023/04/19 13:49:22;;;;;;;;;;;;;;;20.61;42.44;97819.06;5017509;28;20400;-61
2023/04/19 13:51:49;;;;;;;;;;;;;;;20.75;41.73;97809.06;5032188;28;20434;-61
2023/04/19 13:54:19;;;;;;;;;;;;;;;20.86;41.15;97808.28;4996124;28;20038;-61
2023/04/19 13:56:46;;;;;;;;;;;;;;;20.62;41.22;97806.66;5017775;28;19928;-61
2023/04/19 13:59:14;;;;;;;;;;;;;;;20.64;41.28;97813.31;5000526;28;19921;-61
2023/04/19 14:01:41;;;;;;;;;;;;;;;20.75;39.81;97790.56;4993959;28;19936;-61
2023/04/19 14:04:14;;;;;;;;;;;;;;;20.90;41.18;97793.56;5016060;28;19929;-60
2023/04/19 14:06:39;;;;;;;;;;;;;;;20.93;41.16;97787.00;4998381;28;19963;-61
2023/04/19 14:09:05;;;;;;;;;;;;;;;20.92;40.07;97788.84;4999143;28;20011;-61
2023/04/19 14:11:33;;;;;;;;;;;;;;;20.94;40.33;97788.63;5013134;28;19947;-60
2023/04/19 14:13:58;;;;;;;;;;;;;;;21.05;39.46;97773.78;4981869;28;19921;-60
2023/04/19 14:16:26;;;;;;;;;;;;;;;21.16;39.26;97769.53;5014967;28;19929;-61
2023/04/19 14:18:51;;;;;;;;;;;;;;;21.18;39.51;97775.38;4981944;28;19925;-61
2023/04/19 14:21:16;;;;;;;;;;;;;;;21.08;40.36;97765.38;4978672;28;20003;-61
2023/04/19 14:23:44;;;;;;;;;;;;;;;21.15;40.55;97766.03;5015483;28;19925;-61
2023/04/19 14:26:10;;;;;;;;;;;;;;;21.19;40.29;97769.84;4990591;28;19972;-61
2023/04/19 14:28:37;;;;;;;;;;;;;;;21.24;39.94;97762.00;4994291;28;20498;-61
2023/04/19 14:31:05;;;;;;;;;;;;;;;21.25;40.75;97758.34;4990894;28;19953;-61
2023/04/19 14:33:33;;;;;;;;;;;;;;;21.30;39.60;97749.69;4985476;28;19921;-61
2023/04/19 14:35:58;;;;;;;;;;;;;;;21.26;39.58;97748.56;4995544;28;19925;-61
2023/04/19 14:38:26;;;;;;;;;;;;;;;21.33;38.72;97753.72;4995942;28;19967;-60
2023/04/19 14:40:54;;;;;;;;;;;;;;;21.37;37.99;97746.91;4995840;28;19929;-61
2023/04/19 14:43:24;;;;;;;;;;;;;;;21.41;38.55;97740.09;4980626;28;19925;-60
2023/04/19 14:45:52;;;;;;;;;;;;;;;21.40;38.39;97738.53;5013909;28;19928;-61
2023/04/19 14:48:18;;;;;;;;;;;;;;;21.48;38.04;97728.41;4984036;28;19978;-61
2023/04/19 14:50:44;;;;;;;;;;;;;;;21.67;37.90;97739.56;4982647;28;19929;-61
2023/04/19 14:53:09;;;;;;;;;;;;;;;21.73;37.29;97729.09;5002138;28;20008;-60
2023/04/19 14:55:36;;;;;;;;;;;;;;;21.66;37.46;97735.31;5000854;28;19921;-61
2023/04/19 14:58:01;;;;;;;;;;;;;;;21.46;37.12;97738.38;5000285;28;19921;-61
2023/04/19 15:00:26;;;;;;;;;;;;;;;21.34;36.91;97736.78;4983974;28;19932;-60
2023/04/19 15:02:52;;;;;;;;;;;;;;;21.43;36.90;97733.56;4992605;28;19929;-61
2023/04/19 15:05:17;;;;;;;;;;;;;;;21.40;37.16;97730.59;5002268;28;20613;-60
2023/04/19 15:07:42;;;;;;;;;;;;;;;21.32;36.28;97723.84;5005307;28;19925;-61
2023/04/19 15:10:10;;;;;;;;;;;;;;;21.26;36.83;97719.47;5037181;28;19929;-61
2023/04/19 15:12:38;;;;;;;;;;;;;;;21.20;37.54;97723.88;5018968;28;19928;-60
2023/04/19 15:15:06;;;;;;;;;;;;;;;21.13;36.72;97716.06;5002283;28;19930;-61
2023/04/19 15:17:31;;;;;;;;;;;;;;;21.34;37.09;97715.66;5017730;28;20015;-59
2023/04/19 15:20:02;;;;;;;;;;;;;;;21.48;36.69;97715.19;5002901;28;19924;-63
2023/04/19 15:22:28;;;;;;;;;;;;;;;21.53;35.36;97714.47;5026873;28;20035;-59
2023/04/19 15:26:03;;;;;;;;;;;;;;;21.40;35.85;97699.66;5050813;28;20322;-61
2023/04/19 15:28:29;;;;;;;;;;;;;;;21.33;36.72;97703.47;5027284;28;20049;-60
2023/04/19 15:31:12;;;;;;;;;;;;;;;21.28;36.86;97699.72;5029048;28;20406;-60
2023/04/19 15:33:40;;;;;;;;;;;;;;;21.42;36.91;97699.41;5034600;28;19925;-61
2023/04/19 15:36:05;;;;;;;;;;;;;;;21.43;36.93;97699.19;5021379;28;19921;-59
2023/04/19 15:38:31;;;;;;;;;;;;;;;21.38;36.62;97690.38;5023720;28;20718;-60
2023/04/19 15:40:57;;;;;;;;;;;;;;;21.17;36.90;97691.81;5029440;28;19931;-60
2023/04/19 15:43:24;;;;;;;;;;;;;;;21.02;36.45;97695.75;5033075;28;19916;-60
2023/04/19 15:45:50;;;;;;;;;;;;;;;20.85;37.33;97692.25;5026962;28;19959;-60
2023/04/19 15:48:19;;;;;;;;;;;;;;;20.68;37.84;97695.63;5024982;28;20040;-59
2023/04/19 15:50:47;;;;;;;;;;;;;;;20.66;38.14;97691.59;5040907;28;20371;-60
2023/04/19 15:53:12;;;;;;;;;;;;;;;20.63;37.81;97694.72;5029041;28;19929;-59
2023/04/19 15:55:38;;;;;;;;;;;;;;;20.61;37.85;97694.13;5027667;28;19932;-61
2023/04/19 15:58:05;;;;;;;;;;;;;;;20.73;37.48;97700.97;5021403;28;20467;-61
2023/04/19 16:00:30;;;;;;;;;;;;;;;20.73;37.95;97698.34;5011994;28;19924;-60
2023/04/19 16:02:56;;;;;;;;;;;;;;;20.63;38.10;97694.72;5002548;28;20395;-60
2023/04/19 16:05:24;;;;;;;;;;;;;;;20.56;38.09;97697.44;5002427;28;19932;-61
2023/04/19 16:08:06;;;;;;;;;;;;;;;20.62;37.75;97693.09;5009670;28;20418;-60
2023/04/19 16:10:31;;;;;;;;;;;;;;;20.64;38.12;97693.66;4984408;28;19929;-60
2023/04/19 16:12:56;;;;;;;;;;;;;;;20.60;38.17;97695.13;5003296;28;20299;-61
2023/04/19 16:15:22;;;;;;;;;;;;;;;20.57;37.80;97687.66;5004240;28;19925;-61
2023/04/19 16:17:49;;;;;;;;;;;;;;;20.44;38.70;97686.88;5006621;28;19925;-62
2023/04/19 16:20:15;;;;;;;;;;;;;;;20.38;38.32;97687.78;4994682;28;19928;-62
2023/04/19 16:22:42;;;;;;;;;;;;;;;20.34;38.84;97687.47;4990239;28;20555;-61
2023/04/19 16:25:11;;;;;;;;;;;;;;;20.34;38.50;97684.03;5002891;28;19925;-63
2023/04/19 16:27:41;;;;;;;;;;;;;;;20.28;38.58;97680.47;4998036;28;19925;-62
2023/04/19 16:30:06;;;;;;;;;;;;;;;20.19;38.64;97679.22;4989897;28;20458;-62
2023/04/19 16:32:32;;;;;;;;;;;;;;;20.12;38.47;97675.88;5000793;28;20142;-61
2023/04/19 16:34:57;;;;;;;;;;;;;;;20.12;39.13;97674.03;5001673;28;19925;-61
2023/04/19 16:37:22;;;;;;;;;;;;;;;20.11;38.59;97676.88;5005468;28;19971;-62
2023/04/19 16:39:47;;;;;;;;;;;;;;;20.05;38.97;97677.81;5003132;28;19947;-62
2023/04/19 16:42:13;;;;;;;;;;;;;;;19.93;39.37;97673.34;5004522;28;20303;-62
2023/04/19 16:44:38;;;;;;;;;;;;;;;19.83;39.23;97672.28;4984677;28;19944;-63
2023/04/19 16:47:06;;;;;;;;;;;;;;;19.80;39.74;97670.09;5004816;28;19928;-62
2023/04/19 16:49:31;;;;;;;;;;;;;;;19.83;39.50;97664.38;5000473;28;20035;-61
2023/04/19 16:51:59;;;;;;;;;;;;;;;19.88;39.20;97667.13;4982965;28;20880;-62
2023/04/19 16:54:24;;;;;;;;;;;;;;;19.73;39.56;97657.81;5008978;28;20435;-61
2023/04/19 16:56:52;;;;;;;;;;;;;;;19.69;40.00;97661.09;4999277;28;19956;-59
2023/04/19 16:59:17;;;;;;;;;;;;;;;19.69;39.89;97653.97;5023947;28;20043;-63
2023/04/19 17:01:43;;;;;;;;;;;;;;;19.66;40.74;97659.72;5009682;28;20401;-61
2023/04/19 17:04:08;;;;;;;;;;;;;;;19.68;40.38;97656.88;5020337;28;19925;-61
2023/04/19 17:06:33;;;;;;;;;;;;;;;19.64;39.40;97656.53;5025708;28;19932;-61
2023/04/19 17:09:00;;;;;;;;;;;;;;;19.65;39.33;97654.69;5012476;28;20549;-61
2023/04/19 17:11:29;;;;;;;;;;;;;;;19.64;39.33;97647.78;5008240;28;20023;-61
2023/04/19 17:13:55;;;;;;;;;;;;;;;19.51;39.56;97651.44;5025740;28;19929;-61
2023/04/19 17:16:22;;;;;;;;;;;;;;;19.47;39.39;97645.00;5011194;28;19975;-61
2023/04/19 17:18:48;;;;;;;;;;;;;;;19.53;39.34;97649.38;5044742;28;20067;-61
2023/04/19 17:21:15;;;;;;;;;;;;;;;19.48;39.88;97636.88;5011761;28;20352;-62
2023/04/19 17:23:43;;;;;;;;;;;;;;;19.35;40.41;97651.06;5041587;28;19986;-61
2023/04/19 17:26:09;;;;;;;;;;;;;;;19.32;40.69;97648.06;5005140;28;19928;-61
2023/04/19 17:28:34;;;;;;;;;;;;;;;19.26;41.05;97648.94;5024416;28;20275;-60
2023/04/19 17:30:59;;;;;;;;;;;;;;;19.21;41.31;97642.50;5010146;28;20007;-60
2023/04/19 17:33:24;;;;;;;;;;;;;;;19.19;41.95;97644.56;5026293;28;20751;-60
2023/04/19 17:35:50;;;;;;;;;;;;;;;19.19;41.98;97643.78;5007569;28;20010;-61
2023/04/19 17:38:18;;;;;;;;;;;;;;;19.08;42.72;97647.97;5003820;28;19929;-61
2023/04/19 17:40:43;;;;;;;;;;;;;;;19.03;43.12;97647.81;5016156;28;20431;-61
2023/04/19 17:43:09;;;;;;;;;;;;;;;18.95;44.02;97651.56;5020394;28;19949;-61
2023/04/19 17:45:36;;;;;;;;;;;;;;;18.95;44.08;97650.78;5019413;28;20315;-60
2023/04/19 17:48:02;;;;;;;;;;;;;;;18.88;44.16;97658.75;5029084;28;19924;-60
2023/04/19 17:50:28;;;;;;;;;;;;;;;18.76;44.19;97655.22;5020837;28;19936;-61
2023/04/19 17:52:54;;;;;;;;;;;;;;;18.76;44.41;97652.59;5007127;28;19931;-61
2023/04/19 17:55:19;;;;;;;;;;;;;;;18.67;44.62;97657.34;5021310;28;19921;-61
2023/04/19 17:57:45;;;;;;;;;;;;;;;18.68;44.63;97653.69;5006306;28;20708;-61
2023/04/19 18:00:10;;;;;;;;;;;;;;;18.60;44.68;97661.88;5003088;28;19928;-61
2023/04/19 18:02:36;;;;;;;;;;;;;;;18.58;44.77;97661.28;5032856;28;19956;-61
2023/04/19 18:05:04;;;;;;;;;;;;;;;18.62;44.72;97665.13;5021875;28;20019;-61
2023/04/19 18:07:30;;;;;;;;;;;;;;;18.52;44.75;97662.97;5016907;28;19925;-61
2023/04/19 18:09:55;;;;;;;;;;;;;;;18.53;44.64;97667.22;5007477;28;19925;-61
2023/04/19 18:12:20;;;;;;;;;;;;;;;18.40;44.05;97662.91;5020249;28;19951;-61
2023/04/19 18:14:48;;;;;;;;;;;;;;;18.35;44.11;97665.38;5022292;28;19964;-61
2023/04/19 18:17:13;;;;;;;;;;;;;;;18.37;44.02;97665.16;5023437;28;19951;-60
2023/04/19 18:19:38;;;;;;;;;;;;;;;18.34;43.94;97666.38;5022659;28;19952;-62
2023/04/19 18:22:04;;;;;;;;;;;;;;;18.33;43.88;97679.78;5031157;28;19987;-61
2023/04/19 18:24:29;;;;;;;;;;;;;;;18.31;44.29;97680.00;5030384;28;21136;-61
2023/04/19 18:26:54;;;;;;;;;;;;;;;18.27;43.66;97685.91;5047327;28;19925;-61
2023/04/19 18:29:21;;;;;;;;;;;;;;;18.27;43.86;97684.06;5028887;28;20405;-61
2023/04/19 18:31:47;;;;;;;;;;;;;;;18.18;44.33;97691.44;5025990;28;19921;-60
2023/04/19 18:34:12;;;;;;;;;;;;;;;18.20;44.08;97684.13;5032645;28;20263;-63
2023/04/19 18:36:38;;;;;;;;;;;;;;;18.19;44.27;97690.41;5028667;28;19932;-61
2023/04/19 18:39:03;;;;;;;;;;;;;;;18.19;44.50;97692.25;5011904;28;20009;-61
2023/04/19 18:41:28;;;;;;;;;;;;;;;17.99;47.05;97692.41;5014517;28;20368;-61
2023/04/19 18:43:53;;;;;;;;;;;;;;;17.97;47.92;97705.75;5028736;28;20308;-61
2023/04/19 18:46:20;;;;;;;;;;;;;;;17.89;48.15;97713.94;5044350;28;19978;-61
2023/04/19 18:48:45;;;;;;;;;;;;;;;17.72;47.76;97728.56;5011762;28;20447;-60
2023/04/19 18:51:11;;;;;;;;;;;;;;;17.55;50.79;97744.84;5024136;28;19973;-61
2023/04/19 18:53:41;;;;;;;;;;;;;;;17.01;57.96;97746.91;5028104;28;19920;-60
2023/04/19 18:56:08;;;;;;;;;;;;;;;16.95;53.25;97766.09;5025853;28;19925;-61
2023/04/19 18:58:34;;;;;;;;;;;;;;;17.25;49.31;97766.41;5010031;28;19960;-61
2023/04/19 19:00:59;;;;;;;;;;;;;;;17.44;45.22;97777.03;5023111;28;20048;-61
2023/04/19 19:03:25;;;;;;;;;;;;;;;17.08;48.14;97786.25;5011181;28;19952;-61
2023/04/19 19:05:51;;;;;;;;;;;;;;;16.91;47.33;97794.56;5021938;28;19925;-62
2023/04/19 19:08:16;;;;;;;;;;;;;;;16.79;46.96;97811.94;5004915;28;19921;-62
2023/04/19 19:10:42;;;;;;;;;;;;;;;16.76;51.32;97819.44;5013504;28;19982;-62
2023/04/19 19:13:07;;;;;;;;;;;;;;;16.59;54.69;97826.88;5020183;28;19921;-62
2023/04/19 19:15:35;;;;;;;;;;;;;;;16.32;54.71;97800.66;5010725;28;19927;-62
2023/04/19 19:18:02;;;;;;;;;;;;;;;16.32;62.01;97830.31;5028231;28;19968;-64
2023/04/19 19:20:27;;;;;;;;;;;;;;;15.72;70.87;97834.59;5027146;28;19927;-61
2023/04/19 19:22:55;;;;;;;;;;;;;;;15.30;75.22;97836.44;5026956;28;19925;-62
2023/04/19 19:25:21;;;;;;;;;;;;;;;14.97;90.20;97834.44;5011158;28;20285;-61
2023/04/19 19:27:47;;;;;;;;;;;;;;;14.54;96.10;97821.41;5010851;28;19967;-65
2023/04/19 19:30:12;;;;;;;;;;;;;;;14.36;99.47;97804.34;5007773;28;21207;-62
2023/04/19 19:32:41;;;;;;;;;;;;;;;14.48;95.76;97809.09;5043394;28;19920;-62
2023/04/19 19:35:12;;;;;;;;;;;;;;;14.69;97.91;97821.34;5025735;28;20106;-62
2023/04/19 19:37:40;;;;;;;;;;;;;;;14.64;100.00;97826.34;5009501;28;19929;-61
2023/04/19 19:40:06;;;;;;;;;;;;;;;14.71;98.35;97825.41;5010490;28;19928;-62
2023/04/19 19:42:34;;;;;;;;;;;;;;;14.69;92.20;97837.84;5025446;28;19924;-62
2023/04/19 19:45:03;;;;;;;;;;;;;;;14.70;87.72;97839.47;5010639;28;19982;-62
2023/04/19 19:47:31;;;;;;;;;;;;;;;14.78;89.81;97846.38;5005379;28;19925;-62